createdAt,value
2016-10-17T00:00:14.237Z,0
2016-10-17T00:01:24.772Z,0
2016-10-17T00:02:35.407Z,0
2016-10-17T00:03:45.956Z,0
2016-10-17T00:04:56.542Z,0
2016-10-17T00:06:07.091Z,0
2016-10-17T00:07:17.603Z,0
2016-10-17T00:09:00.204Z,0
2016-10-17T00:10:10.714Z,0
2016-10-17T00:11:21.220Z,0
2016-10-17T00:12:31.753Z,0
2016-10-17T00:13:42.285Z,0
2016-10-17T00:14:52.842Z,0
2016-10-17T00:16:03.374Z,0
2016-10-17T00:17:13.955Z,0
2016-10-17T00:18:24.542Z,0
2016-10-17T00:19:35.200Z,0
2016-10-17T00:20:45.788Z,0
2016-10-17T00:21:56.368Z,0
2016-10-17T00:23:06.925Z,0
2016-10-17T00:24:17.473Z,0
2016-10-17T00:25:28.606Z,0
2016-10-17T00:26:39.175Z,0
2016-10-17T00:27:49.697Z,0
2016-10-17T00:29:00.233Z,0
2016-10-17T00:30:10.747Z,0
2016-10-17T00:31:22.201Z,0
2016-10-17T00:32:32.771Z,0
2016-10-17T00:33:43.355Z,0
2016-10-17T00:34:53.907Z,0
2016-10-17T00:36:04.475Z,0
2016-10-17T00:37:15.192Z,0
2016-10-17T00:38:25.703Z,0
2016-10-17T00:39:36.765Z,0
2016-10-17T00:40:47.269Z,0
2016-10-17T00:41:57.841Z,0
2016-10-17T00:43:08.514Z,0
2016-10-17T00:44:19.029Z,0
2016-10-17T00:45:29.565Z,0
2016-10-17T00:46:40.271Z,0
2016-10-17T00:47:51.032Z,0
2016-10-17T00:49:02.006Z,0
2016-10-17T00:50:12.844Z,0
2016-10-17T00:51:23.685Z,0
2016-10-17T00:52:34.497Z,0
2016-10-17T00:53:45.623Z,0
2016-10-17T00:54:57.013Z,0
2016-10-17T00:56:07.859Z,0
2016-10-17T00:57:18.848Z,0
2016-10-17T00:58:29.968Z,0
2016-10-17T00:59:41.155Z,0
2016-10-17T01:00:52.063Z,0
2016-10-17T01:02:02.770Z,0
2016-10-17T01:03:13.559Z,0
2016-10-17T01:04:24.340Z,0
2016-10-17T01:05:34.959Z,0
2016-10-17T01:06:45.760Z,0
2016-10-17T01:07:56.448Z,0
2016-10-17T01:09:07.182Z,0
2016-10-17T01:10:17.973Z,0
2016-10-17T01:11:28.629Z,0
2016-10-17T01:12:39.330Z,0
2016-10-17T01:13:50.029Z,0
2016-10-17T01:15:00.702Z,0
2016-10-17T01:16:11.737Z,0
2016-10-17T01:17:22.453Z,0
2016-10-17T01:18:33.091Z,0
2016-10-17T01:19:43.644Z,0
2016-10-17T01:20:54.256Z,0
2016-10-17T01:22:04.862Z,0
2016-10-17T01:23:15.576Z,0
2016-10-17T01:24:26.859Z,0
2016-10-17T01:25:37.501Z,0
2016-10-17T01:26:48.161Z,0
2016-10-17T01:27:58.771Z,0
2016-10-17T01:29:09.336Z,0
2016-10-17T01:30:19.987Z,0
2016-10-17T01:31:30.952Z,0
2016-10-17T01:32:41.685Z,0
2016-10-17T01:33:52.244Z,0
2016-10-17T01:35:02.829Z,0
2016-10-17T01:36:45.628Z,0
2016-10-17T01:37:56.213Z,0
2016-10-17T01:39:06.771Z,0
2016-10-17T01:40:17.382Z,0
2016-10-17T01:41:28.036Z,0
2016-10-17T01:42:38.981Z,0
2016-10-17T01:43:49.893Z,0
2016-10-17T01:45:00.493Z,0
2016-10-17T01:46:11.031Z,0
2016-10-17T01:47:21.710Z,0
2016-10-17T01:48:32.283Z,0
2016-10-17T01:49:42.882Z,0
2016-10-17T01:50:53.428Z,0
2016-10-17T01:52:03.981Z,0
2016-10-17T01:53:14.849Z,0
2016-10-17T01:54:25.380Z,0
2016-10-17T01:55:36.366Z,0
2016-10-17T01:56:46.928Z,0
2016-10-17T01:57:57.510Z,0
2016-10-17T01:59:08.164Z,0
2016-10-17T02:00:18.740Z,0
2016-10-17T02:01:29.728Z,0
2016-10-17T02:02:40.290Z,0
2016-10-17T02:03:50.953Z,0
2016-10-17T02:05:01.749Z,0
2016-10-17T02:06:12.359Z,0
2016-10-17T02:07:22.938Z,0
2016-10-17T02:08:33.630Z,0
2016-10-17T02:09:44.307Z,0
2016-10-17T02:10:54.963Z,0
2016-10-17T02:12:05.679Z,0
2016-10-17T02:13:16.767Z,0
2016-10-17T02:14:27.428Z,0
2016-10-17T02:15:38.191Z,0
2016-10-17T02:16:48.865Z,0
2016-10-17T02:17:59.511Z,0
2016-10-17T02:19:10.144Z,0
2016-10-17T02:20:20.694Z,0
2016-10-17T02:21:31.235Z,0
2016-10-17T02:22:41.823Z,0
2016-10-17T02:23:52.479Z,0
2016-10-17T02:25:03.246Z,0
2016-10-17T02:26:13.913Z,0
2016-10-17T02:27:24.490Z,0
2016-10-17T02:28:35.199Z,0
2016-10-17T02:29:45.780Z,0
2016-10-17T02:30:56.422Z,0
2016-10-17T02:32:07.204Z,0
2016-10-17T02:33:17.988Z,0
2016-10-17T02:34:28.753Z,0
2016-10-17T02:35:39.402Z,0
2016-10-17T02:36:49.998Z,0
2016-10-17T02:38:00.699Z,0
2016-10-17T02:39:11.381Z,0
2016-10-17T02:40:22.150Z,0
2016-10-17T02:41:32.747Z,0
2016-10-17T02:42:43.257Z,0
2016-10-17T02:43:53.803Z,0
2016-10-17T02:45:04.345Z,0
2016-10-17T02:46:15.025Z,0
2016-10-17T02:47:25.604Z,0
2016-10-17T02:48:36.141Z,0
2016-10-17T02:49:46.698Z,0
2016-10-17T02:50:57.242Z,0
2016-10-17T02:52:07.862Z,0
2016-10-17T02:53:18.410Z,0
2016-10-17T02:54:28.930Z,0
2016-10-17T02:55:39.970Z,0
2016-10-17T02:56:50.474Z,0
2016-10-17T02:58:01.152Z,0
2016-10-17T02:59:11.721Z,0
2016-10-17T03:00:22.292Z,0
2016-10-17T03:01:32.816Z,0
2016-10-17T03:02:43.305Z,0
2016-10-17T03:03:53.869Z,0
2016-10-17T03:05:04.389Z,0
2016-10-17T03:06:14.849Z,0
2016-10-17T03:07:25.372Z,0
2016-10-17T03:08:36.355Z,0
2016-10-17T03:09:46.941Z,0
2016-10-17T03:10:57.479Z,0
2016-10-17T03:12:08.001Z,0
2016-10-17T03:13:18.524Z,0
2016-10-17T03:14:29.069Z,0
2016-10-17T03:15:39.680Z,0
2016-10-17T03:16:50.158Z,0
2016-10-17T03:18:00.681Z,0
2016-10-17T03:19:14.732Z,0
2016-10-17T03:20:25.233Z,0
2016-10-17T03:21:35.846Z,0
2016-10-17T03:22:46.362Z,0
2016-10-17T03:23:56.860Z,0
2016-10-17T03:25:07.347Z,0
2016-10-17T03:26:17.871Z,0
2016-10-17T03:27:28.489Z,0
2016-10-17T03:28:39.019Z,0
2016-10-17T03:29:49.553Z,0
2016-10-17T03:31:00.019Z,0
2016-10-17T03:32:10.528Z,0
2016-10-17T03:33:21.603Z,0
2016-10-17T03:34:32.122Z,0
2016-10-17T03:35:42.615Z,0
2016-10-17T03:36:53.102Z,0
2016-10-17T03:38:04.076Z,0
2016-10-17T03:39:14.567Z,0
2016-10-17T03:40:25.564Z,0
2016-10-17T03:41:36.058Z,0
2016-10-17T03:42:46.536Z,0
2016-10-17T03:43:57.526Z,0
2016-10-17T03:45:08.139Z,0
2016-10-17T03:46:18.680Z,0
2016-10-17T03:47:29.152Z,0
2016-10-17T03:48:39.684Z,0
2016-10-17T03:49:50.226Z,0
2016-10-17T03:51:00.799Z,0
2016-10-17T03:52:11.334Z,0
2016-10-17T03:53:21.828Z,0
2016-10-17T03:54:32.335Z,0
2016-10-17T03:55:42.821Z,0
2016-10-17T03:56:53.333Z,0
2016-10-17T03:58:03.863Z,0
2016-10-17T03:59:14.352Z,0
2016-10-17T04:00:24.937Z,0
2016-10-17T04:01:35.403Z,0
2016-10-17T04:02:46.069Z,0
2016-10-17T04:03:57.071Z,0
2016-10-17T04:05:07.576Z,0
2016-10-17T04:06:18.076Z,0
2016-10-17T04:07:28.535Z,0
2016-10-17T04:08:39.715Z,0
2016-10-17T04:09:50.234Z,0
2016-10-17T04:11:00.773Z,0
2016-10-17T04:12:11.242Z,0
2016-10-17T04:13:21.743Z,0
2016-10-17T04:14:32.218Z,0
2016-10-17T04:15:42.747Z,0
2016-10-17T04:16:53.243Z,0
2016-10-17T04:18:04.244Z,0
2016-10-17T04:19:14.746Z,0
2016-10-17T04:20:25.295Z,0
2016-10-17T04:21:35.793Z,0
2016-10-17T04:22:46.299Z,0
2016-10-17T04:23:56.793Z,0
2016-10-17T04:25:07.290Z,0
2016-10-17T04:26:17.952Z,0
2016-10-17T04:27:28.469Z,0
2016-10-17T04:28:38.972Z,0
2016-10-17T04:29:49.469Z,0
2016-10-17T04:30:59.943Z,0
2016-10-17T04:32:10.501Z,0
2016-10-17T04:33:21.535Z,0
2016-10-17T04:34:32.049Z,0
2016-10-17T04:35:42.559Z,0
2016-10-17T04:36:53.015Z,0
2016-10-17T04:38:03.620Z,0
2016-10-17T04:39:14.569Z,0
2016-10-17T04:40:25.084Z,0
2016-10-17T04:41:35.603Z,0
2016-10-17T04:42:46.107Z,0
2016-10-17T04:43:57.098Z,0
2016-10-17T04:45:08.055Z,0
2016-10-17T04:46:18.574Z,0
2016-10-17T04:47:29.056Z,0
2016-10-17T04:48:39.550Z,0
2016-10-17T04:49:50.629Z,0
2016-10-17T04:51:01.124Z,0
2016-10-17T04:52:11.577Z,0
2016-10-17T04:53:22.144Z,0
2016-10-17T04:54:32.671Z,0
2016-10-17T04:55:43.244Z,0
2016-10-17T04:56:53.730Z,0
2016-10-17T04:58:04.275Z,0
2016-10-17T04:59:15.270Z,0
2016-10-17T05:00:25.796Z,0
2016-10-17T05:01:36.406Z,0
2016-10-17T05:02:46.907Z,0
2016-10-17T05:03:57.468Z,0
2016-10-17T05:05:07.993Z,0
2016-10-17T05:06:18.479Z,0
2016-10-17T05:07:29.089Z,0
2016-10-17T05:08:39.586Z,0
2016-10-17T05:09:50.045Z,0
2016-10-17T05:11:00.514Z,0
2016-10-17T05:12:11.001Z,0
2016-10-17T05:13:21.615Z,0
2016-10-17T05:14:32.119Z,0
2016-10-17T05:15:42.635Z,0
2016-10-17T05:16:53.117Z,0
2016-10-17T05:18:04.123Z,0
2016-10-17T05:19:14.667Z,0
2016-10-17T05:20:25.154Z,0
2016-10-17T05:21:35.713Z,0
2016-10-17T05:22:46.224Z,0
2016-10-17T05:23:56.772Z,0
2016-10-17T05:25:07.419Z,0
2016-10-17T05:26:17.959Z,0
2016-10-17T05:27:28.481Z,0
2016-10-17T05:28:39.000Z,0
2016-10-17T05:29:49.497Z,0
2016-10-17T05:31:00.112Z,0
2016-10-17T05:32:10.650Z,0
2016-10-17T05:33:21.189Z,0
2016-10-17T05:34:31.735Z,0
2016-10-17T05:35:42.276Z,0
2016-10-17T05:36:52.923Z,0
2016-10-17T05:38:03.479Z,0
2016-10-17T05:39:14.001Z,0
2016-10-17T05:40:24.550Z,0
2016-10-17T05:41:35.115Z,0
2016-10-17T05:42:45.667Z,0
2016-10-17T05:43:56.206Z,0
2016-10-17T05:45:06.766Z,0
2016-10-17T05:46:17.305Z,0
2016-10-17T05:47:27.806Z,0
2016-10-17T05:48:38.433Z,0
2016-10-17T05:49:48.960Z,0
2016-10-17T05:50:59.516Z,0
2016-10-17T05:52:10.039Z,0
2016-10-17T05:53:20.545Z,0
2016-10-17T05:54:31.206Z,0
2016-10-17T05:55:42.271Z,0
2016-10-17T05:56:52.774Z,0
2016-10-17T05:58:03.307Z,0
2016-10-17T05:59:13.799Z,0
2016-10-17T06:00:24.401Z,0
2016-10-17T06:01:34.935Z,0
2016-10-17T06:02:45.510Z,0
2016-10-17T06:03:56.032Z,0
2016-10-17T06:05:07.051Z,0
2016-10-17T06:06:17.609Z,0
2016-10-17T06:07:28.145Z,0
2016-10-17T06:08:38.668Z,0
2016-10-17T06:09:49.186Z,0
2016-10-17T06:10:59.764Z,0
2016-10-17T06:12:10.368Z,0
2016-10-17T06:13:20.921Z,0
2016-10-17T06:14:31.443Z,0
2016-10-17T06:15:41.973Z,0
2016-10-17T06:16:52.529Z,0
2016-10-17T06:18:03.170Z,0
2016-10-17T06:19:13.720Z,0
2016-10-17T06:20:24.756Z,0
2016-10-17T06:21:35.305Z,0
2016-10-17T06:22:45.885Z,0
2016-10-17T06:23:56.406Z,0
2016-10-17T06:25:06.966Z,0
2016-10-17T06:26:17.496Z,0
2016-10-17T06:27:28.015Z,0
2016-10-17T06:28:38.565Z,0
2016-10-17T06:29:49.208Z,0
2016-10-17T06:30:59.736Z,0
2016-10-17T06:32:10.239Z,0
2016-10-17T06:33:20.778Z,0
2016-10-17T06:34:31.319Z,0
2016-10-17T06:35:41.964Z,0
2016-10-17T06:36:52.472Z,0
2016-10-17T06:38:03.035Z,0
2016-10-17T06:39:13.585Z,0
2016-10-17T06:40:24.096Z,0
2016-10-17T06:41:34.772Z,0
2016-10-17T06:42:45.342Z,0
2016-10-17T06:43:55.878Z,0
2016-10-17T06:45:06.445Z,0
2016-10-17T06:46:16.988Z,0
2016-10-17T06:47:27.514Z,0
2016-10-17T06:48:38.089Z,0
2016-10-17T06:49:48.630Z,0
2016-10-17T06:50:59.176Z,0
2016-10-17T06:52:09.694Z,0
2016-10-17T06:53:20.325Z,0
2016-10-17T06:54:30.901Z,0
2016-10-17T06:55:41.425Z,0
2016-10-17T06:56:51.999Z,0
2016-10-17T06:58:02.587Z,0
2016-10-17T06:59:13.302Z,0
2016-10-17T07:00:23.871Z,0
2016-10-17T07:01:34.442Z,0
2016-10-17T07:02:45.010Z,0
2016-10-17T07:03:55.588Z,0
2016-10-17T07:05:06.255Z,0
2016-10-17T07:06:16.817Z,0
2016-10-17T07:07:27.392Z,0
2016-10-17T07:08:37.967Z,0
2016-10-17T07:09:48.545Z,0
2016-10-17T07:10:59.126Z,0
2016-10-17T07:12:09.700Z,0
2016-10-17T07:13:20.280Z,0
2016-10-17T07:14:30.868Z,0
2016-10-17T07:15:41.447Z,0
2016-10-17T07:16:52.121Z,0
2016-10-17T07:18:02.685Z,0
2016-10-17T07:19:13.251Z,0
2016-10-17T07:20:24.311Z,0
2016-10-17T07:21:34.910Z,0
2016-10-17T07:22:45.576Z,0
2016-10-17T07:23:56.145Z,0
2016-10-17T07:25:06.721Z,0
2016-10-17T07:26:17.295Z,0
2016-10-17T07:27:27.865Z,0
2016-10-17T07:28:38.575Z,0
2016-10-17T07:29:49.108Z,0
2016-10-17T07:30:59.637Z,0
2016-10-17T07:32:10.204Z,0
2016-10-17T07:33:20.759Z,0
2016-10-17T07:34:31.790Z,0
2016-10-17T07:35:42.289Z,0
2016-10-17T07:36:52.831Z,0
2016-10-17T07:38:03.358Z,0
2016-10-17T07:39:14.436Z,0
2016-10-17T07:40:25.293Z,0
2016-10-17T07:41:35.853Z,0
2016-10-17T07:42:46.389Z,0
2016-10-17T07:43:56.921Z,0
2016-10-17T07:45:07.452Z,0
2016-10-17T07:46:18.058Z,0
2016-10-17T07:47:29.103Z,0
2016-10-17T07:48:39.658Z,0
2016-10-17T07:49:50.231Z,0
2016-10-17T07:51:01.225Z,0
2016-10-17T07:52:11.750Z,0
2016-10-17T07:53:22.285Z,0
2016-10-17T07:54:32.869Z,0
2016-10-17T07:55:43.407Z,0
2016-10-17T07:56:53.944Z,0
2016-10-17T07:58:04.633Z,0
2016-10-17T07:59:15.159Z,0
2016-10-17T08:00:25.650Z,0
2016-10-17T08:01:36.157Z,0
2016-10-17T08:02:46.702Z,0
2016-10-17T08:03:57.353Z,0
2016-10-17T08:05:07.888Z,0
2016-10-17T08:06:18.446Z,0
2016-10-17T08:07:28.945Z,0
2016-10-17T08:08:39.475Z,0
2016-10-17T08:09:50.187Z,0
2016-10-17T08:11:00.703Z,0
2016-10-17T08:12:11.257Z,0
2016-10-17T08:13:21.780Z,0
2016-10-17T08:14:32.293Z,4
2016-10-17T08:15:42.813Z,4
2016-10-17T08:16:53.352Z,4
2016-10-17T08:18:03.867Z,4
2016-10-17T08:19:14.413Z,4
2016-10-17T08:20:25.023Z,8
2016-10-17T08:21:35.684Z,12
2016-10-17T08:22:46.245Z,16
2016-10-17T08:23:56.810Z,12
2016-10-17T08:25:07.346Z,20
2016-10-17T08:26:17.898Z,28
2016-10-17T08:27:28.548Z,40
2016-10-17T08:28:39.076Z,44
2016-10-17T08:29:49.628Z,52
2016-10-17T08:31:00.150Z,52
2016-10-17T08:32:10.668Z,80
2016-10-17T08:33:21.340Z,72
2016-10-17T08:34:31.865Z,80
2016-10-17T08:35:42.433Z,108
2016-10-17T08:36:52.949Z,112
2016-10-17T08:38:03.498Z,124
2016-10-17T08:39:14.012Z,160
2016-10-17T08:40:24.585Z,176
2016-10-17T08:41:35.153Z,156
2016-10-17T08:42:45.694Z,164
2016-10-17T08:43:56.187Z,220
2016-10-17T08:45:06.798Z,288
2016-10-17T08:46:17.258Z,412
2016-10-17T08:47:27.837Z,464
2016-10-17T08:48:38.358Z,636
2016-10-17T08:49:48.935Z,692
2016-10-17T08:50:59.572Z,752
2016-10-17T08:52:10.091Z,760
2016-10-17T08:53:20.632Z,660
2016-10-17T08:54:31.204Z,624
2016-10-17T08:55:41.750Z,588
2016-10-17T08:56:52.396Z,536
2016-10-17T08:58:02.917Z,644
2016-10-17T08:59:13.482Z,628
2016-10-17T09:00:24.024Z,568
2016-10-17T09:01:34.521Z,744
2016-10-17T09:02:45.143Z,944
2016-10-17T09:03:55.670Z,1096
2016-10-17T09:05:06.248Z,1196
2016-10-17T09:07:07.727Z,1392
2016-10-17T09:08:18.522Z,1604
2016-10-17T09:09:29.075Z,2064
2016-10-17T09:10:39.602Z,2216
2016-10-17T09:11:50.186Z,2364
2016-10-17T09:13:00.670Z,2496
2016-10-17T09:14:11.314Z,2584
2016-10-17T09:15:21.796Z,3300
2016-10-17T09:16:32.328Z,4664
2016-10-17T09:17:42.893Z,6260
2016-10-17T09:18:53.371Z,7068
2016-10-17T09:20:04.032Z,7536
2016-10-17T09:21:14.540Z,7372
2016-10-17T09:22:25.121Z,7292
2016-10-17T09:23:35.784Z,7364
2016-10-17T09:24:46.313Z,7632
2016-10-17T09:25:56.923Z,6404
2016-10-17T09:27:07.447Z,5676
2016-10-17T09:28:18.021Z,5244
2016-10-17T09:29:29.027Z,4812
2016-10-17T09:30:39.566Z,4904
2016-10-17T09:31:50.099Z,5088
2016-10-17T09:33:00.624Z,4968
2016-10-17T09:34:11.197Z,5432
2016-10-17T09:35:21.744Z,6332
2016-10-17T09:36:32.249Z,7816
2016-10-17T09:37:42.892Z,7792
2016-10-17T09:38:53.409Z,8112
2016-10-17T09:40:03.963Z,8340
2016-10-17T09:41:14.458Z,8068
2016-10-17T09:42:24.984Z,8976
2016-10-17T09:43:35.598Z,9092
2016-10-17T09:44:46.155Z,8736
2016-10-17T09:45:56.703Z,9468
2016-10-17T09:47:07.185Z,11060
2016-10-17T09:48:17.674Z,12032
2016-10-17T09:49:28.239Z,11236
2016-10-17T09:50:38.701Z,14164
2016-10-17T09:51:49.214Z,23488
2016-10-17T09:53:00.153Z,14328
2016-10-17T09:54:10.730Z,18304
2016-10-17T09:55:21.796Z,17248
2016-10-17T09:56:32.265Z,12808
2016-10-17T09:57:42.777Z,15852
2016-10-17T09:58:53.306Z,28864
2016-10-17T10:00:03.786Z,17856
2016-10-17T10:01:14.388Z,41632
2016-10-17T10:02:24.885Z,20224
2016-10-17T10:03:35.341Z,14416
2016-10-17T10:04:45.835Z,11880
2016-10-17T10:05:56.348Z,12296
2016-10-17T10:07:06.916Z,35648
2016-10-17T10:08:17.418Z,29632
2016-10-17T10:09:27.928Z,43136
2016-10-17T10:10:38.450Z,28192
2016-10-17T10:11:48.974Z,30240
2016-10-17T10:12:59.484Z,53888
2016-10-17T10:14:09.988Z,22144
2016-10-17T10:15:20.443Z,21600
2016-10-17T10:16:31.022Z,13844
2016-10-17T10:17:41.579Z,17888
2016-10-17T10:18:52.228Z,15912
2016-10-17T10:20:02.798Z,17536
2016-10-17T10:21:13.374Z,20032
2016-10-17T10:22:23.953Z,18848
2016-10-17T10:23:34.531Z,20192
2016-10-17T10:24:45.213Z,24736
2016-10-17T10:25:55.826Z,23456
2016-10-17T10:27:06.403Z,23168
2016-10-17T10:28:16.982Z,24000
2016-10-17T10:29:27.560Z,21376
2016-10-17T10:30:38.235Z,22784
2016-10-17T10:31:48.812Z,22240
2016-10-17T10:32:59.398Z,26112
2016-10-17T10:34:10.006Z,28480
2016-10-17T10:35:20.591Z,32480
2016-10-17T10:36:31.169Z,29696
2016-10-17T10:37:41.788Z,37984
2016-10-17T10:38:52.407Z,46464
2016-10-17T10:40:03.482Z,59232
2016-10-17T10:41:14.049Z,37952
2016-10-17T10:42:24.725Z,37248
2016-10-17T10:43:35.346Z,63840
2016-10-17T10:44:45.914Z,72704
2016-10-17T10:45:56.498Z,70112
2016-10-17T10:47:07.069Z,67680
2016-10-17T10:48:17.741Z,67040
2016-10-17T10:49:28.332Z,52992
2016-10-17T10:50:38.954Z,72576
2016-10-17T10:51:49.480Z,71360
2016-10-17T10:53:00.005Z,74944
2016-10-17T10:54:10.601Z,79840
2016-10-17T10:55:21.100Z,74592
2016-10-17T10:56:31.656Z,69184
2016-10-17T10:57:42.122Z,72128
2016-10-17T10:58:52.590Z,72832
2016-10-17T11:00:04.173Z,72224
2016-10-17T11:01:14.633Z,74656
2016-10-17T11:02:25.154Z,70976
2016-10-17T11:03:35.670Z,70528
2016-10-17T11:04:46.142Z,72032
2016-10-17T11:05:56.775Z,72928
2016-10-17T11:07:07.271Z,71360
2016-10-17T11:08:17.763Z,72544
2016-10-17T11:09:28.249Z,69920
2016-10-17T11:10:38.789Z,76608
2016-10-17T11:11:49.388Z,77536
2016-10-17T11:12:59.914Z,78976
2016-10-17T11:14:10.942Z,76448
2016-10-17T11:15:21.466Z,79040
2016-10-17T11:16:31.993Z,80704
2016-10-17T11:17:42.680Z,78048
2016-10-17T11:18:53.252Z,82816
2016-10-17T11:20:03.800Z,84768
2016-10-17T11:21:14.346Z,79776
2016-10-17T11:22:24.806Z,78208
2016-10-17T11:23:35.393Z,79264
2016-10-17T11:24:45.957Z,81472
2016-10-17T11:25:56.543Z,77216
2016-10-17T11:27:07.127Z,71936
2016-10-17T11:28:17.726Z,75232
2016-10-17T11:29:28.423Z,77056
2016-10-17T11:30:39.048Z,77504
2016-10-17T11:31:49.633Z,78080
2016-10-17T11:33:00.221Z,80320
2016-10-17T11:34:10.823Z,80160
2016-10-17T11:35:21.515Z,78112
2016-10-17T11:36:32.607Z,79936
2016-10-17T11:37:43.206Z,81248
2016-10-17T11:38:53.802Z,77408
2016-10-17T11:40:04.395Z,75264
2016-10-17T11:41:15.010Z,85888
2016-10-17T11:42:25.606Z,90784
2016-10-17T11:43:36.195Z,89216
2016-10-17T11:44:46.784Z,89856
2016-10-17T11:45:57.394Z,85664
2016-10-17T11:47:08.569Z,83328
2016-10-17T11:48:19.155Z,85504
2016-10-17T11:49:29.778Z,90496
2016-10-17T11:50:40.359Z,89280
2016-10-17T11:51:50.950Z,88448
2016-10-17T11:53:01.657Z,84672
2016-10-17T11:54:12.303Z,89632
2016-10-17T11:55:22.890Z,89760
2016-10-17T11:56:33.481Z,84192
2016-10-17T11:57:44.076Z,82400
2016-10-17T11:58:54.609Z,90272
2016-10-17T12:00:05.152Z,87904
2016-10-17T12:01:15.767Z,90144
2016-10-17T12:02:26.319Z,92448
2016-10-17T12:03:36.868Z,91136
2016-10-17T12:04:47.591Z,95264
2016-10-17T12:05:58.126Z,91872
2016-10-17T12:07:08.673Z,86912
2016-10-17T12:08:19.215Z,88704
2016-10-17T12:09:29.847Z,72544
2016-10-17T12:10:40.456Z,78720
2016-10-17T12:11:51.007Z,90784
2016-10-17T12:13:01.603Z,90496
2016-10-17T12:14:12.176Z,80896
2016-10-17T12:15:22.753Z,71424
2016-10-17T12:16:33.431Z,72416
2016-10-17T12:17:43.979Z,83552
2016-10-17T12:18:54.570Z,96288
2016-10-17T12:20:05.160Z,99488
2016-10-17T12:21:15.730Z,97664
2016-10-17T12:22:26.396Z,98368
2016-10-17T12:23:36.968Z,94976
2016-10-17T12:24:47.538Z,95712
2016-10-17T12:25:58.085Z,97568
2016-10-17T12:27:08.687Z,99552
2016-10-17T12:28:19.319Z,99136
2016-10-17T12:29:29.808Z,97632
2016-10-17T12:30:40.379Z,103360
2016-10-17T12:31:50.953Z,102432
2016-10-17T12:33:01.564Z,99584
2016-10-17T12:34:12.330Z,98720
2016-10-17T12:35:23.422Z,99936
2016-10-17T12:36:34.008Z,99296
2016-10-17T12:37:44.640Z,93216
2016-10-17T12:38:55.231Z,87872
2016-10-17T12:40:05.835Z,88288
2016-10-17T12:41:16.432Z,86208
2016-10-17T12:42:27.027Z,94496
2016-10-17T12:43:37.626Z,95648
2016-10-17T12:44:48.219Z,89248
2016-10-17T12:45:58.927Z,84032
2016-10-17T12:47:09.519Z,83168
2016-10-17T12:48:20.096Z,88800
2016-10-17T12:49:30.688Z,92768
2016-10-17T12:50:41.274Z,89920
2016-10-17T12:51:51.965Z,87232
2016-10-17T12:53:03.040Z,84512
2016-10-17T12:54:13.640Z,82592
2016-10-17T12:55:24.224Z,85280
2016-10-17T12:56:34.822Z,87488
2016-10-17T12:57:45.555Z,97664
2016-10-17T12:58:56.709Z,101952
2016-10-17T13:00:07.302Z,99840
2016-10-17T13:01:17.892Z,101408
2016-10-17T13:02:28.508Z,95936
2016-10-17T13:03:39.203Z,91776
2016-10-17T13:04:49.798Z,93248
2016-10-17T13:06:00.358Z,95904
2016-10-17T13:07:10.859Z,98016
2016-10-17T13:08:21.375Z,95296
2016-10-17T13:09:31.998Z,91168
2016-10-17T13:10:42.508Z,92864
2016-10-17T13:11:53.005Z,91936
2016-10-17T13:13:03.519Z,96192
2016-10-17T13:14:45.868Z,97568
2016-10-17T13:15:56.389Z,99488
2016-10-17T13:17:06.893Z,97728
2016-10-17T13:18:17.435Z,100512
2016-10-17T13:19:28.011Z,97120
2016-10-17T13:20:38.616Z,97248
2016-10-17T13:21:49.150Z,98144
2016-10-17T13:22:59.690Z,96736
2016-10-17T13:24:10.198Z,95264
2016-10-17T13:25:20.745Z,95232
2016-10-17T13:26:31.421Z,92160
2016-10-17T13:27:42.384Z,91136
2016-10-17T13:28:52.856Z,96608
2016-10-17T13:30:03.382Z,97504
2016-10-17T13:31:13.911Z,93760
2016-10-17T13:32:24.527Z,95520
2016-10-17T13:33:35.040Z,90816
2016-10-17T13:34:45.548Z,91648
2016-10-17T13:35:56.118Z,93472
2016-10-17T13:37:06.614Z,88736
2016-10-17T13:38:17.217Z,88864
2016-10-17T13:39:27.734Z,91104
2016-10-17T13:52:49.511Z,97216
2016-10-17T13:54:00.057Z,95264
2016-10-17T13:55:10.571Z,96448
2016-10-17T13:56:21.111Z,94144
2016-10-17T13:57:31.591Z,94688
2016-10-17T13:58:42.223Z,87648
2016-10-17T13:59:52.737Z,85696
2016-10-17T14:01:03.226Z,90240
2016-10-17T14:02:13.797Z,94976
2016-10-17T14:03:24.334Z,92736
2016-10-17T14:04:34.869Z,90816
2016-10-17T14:05:45.374Z,89792
2016-10-17T14:06:55.870Z,91424
2016-10-17T14:08:06.424Z,91424
2016-10-17T14:09:17.392Z,91968
2016-10-17T14:10:28.039Z,94560
2016-10-17T14:11:38.582Z,98720
2016-10-17T14:12:49.129Z,97248
2016-10-17T14:13:59.665Z,94848
2016-10-17T14:15:10.226Z,94176
2016-10-17T14:16:20.761Z,97216
2016-10-17T14:17:31.301Z,98272
2016-10-17T14:18:41.805Z,96960
2016-10-17T14:19:52.304Z,94464
2016-10-17T14:21:02.856Z,97280
2016-10-17T14:22:13.515Z,92576
2016-10-17T14:23:24.074Z,91520
2016-10-17T14:24:34.583Z,92576
2016-10-17T14:25:45.079Z,94528
2016-10-17T14:26:55.594Z,96832
2016-10-17T14:28:06.596Z,97472
2016-10-17T14:29:17.102Z,93952
2016-10-17T14:30:27.614Z,98272
2016-10-17T14:31:38.111Z,94688
2016-10-17T14:32:48.608Z,94976
2016-10-17T14:33:59.234Z,93024
2016-10-17T14:35:09.741Z,92800
2016-10-17T14:36:20.251Z,94464
2016-10-17T14:37:30.788Z,97536
2016-10-17T14:38:41.297Z,98688
2016-10-17T14:39:51.784Z,93632
2016-10-17T14:41:02.339Z,93216
2016-10-17T14:42:12.849Z,93344
2016-10-17T14:43:23.846Z,90016
2016-10-17T14:44:34.403Z,88096
2016-10-17T14:45:45.079Z,90912
2016-10-17T14:46:55.594Z,90720
2016-10-17T14:48:06.114Z,86304
2016-10-17T14:49:16.688Z,86272
2016-10-17T14:50:27.256Z,79552
2016-10-17T14:51:37.916Z,80192
2016-10-17T14:52:48.449Z,85408
2016-10-17T14:53:59.013Z,93120
2016-10-17T14:55:09.515Z,93920
2016-10-17T14:56:20.040Z,93248
2016-10-17T14:57:30.712Z,91552
2016-10-17T14:58:41.275Z,93632
2016-10-17T14:59:51.776Z,93472
2016-10-17T15:01:02.312Z,95168
2016-10-17T15:02:13.280Z,96512
2016-10-17T15:03:23.779Z,95872
2016-10-17T15:04:34.743Z,89344
2016-10-17T15:05:45.225Z,87008
2016-10-17T15:06:55.729Z,85184
2016-10-17T15:08:06.262Z,85056
2016-10-17T15:09:16.885Z,87968
2016-10-17T15:10:27.442Z,89600
2016-10-17T15:11:37.980Z,84608
2016-10-17T15:12:48.486Z,88576
2016-10-17T15:13:59.055Z,90496
2016-10-17T15:15:10.068Z,86784
2016-10-17T15:16:20.583Z,89312
2016-10-17T15:17:31.088Z,93664
2016-10-17T15:18:41.676Z,89632
2016-10-17T15:19:52.652Z,93632
2016-10-17T15:21:03.620Z,94272
2016-10-17T15:22:14.103Z,91616
2016-10-17T15:23:24.573Z,88640
2016-10-17T15:24:35.046Z,89344
2016-10-17T15:25:45.530Z,88928
2016-10-17T15:26:56.109Z,89536
2016-10-17T15:28:06.584Z,91520
2016-10-17T15:29:17.073Z,87936
2016-10-17T15:30:28.034Z,85376
2016-10-17T15:31:38.561Z,79904
2016-10-17T15:32:49.039Z,86560
2016-10-17T15:33:59.515Z,84960
2016-10-17T15:35:10.000Z,84000
2016-10-17T15:36:20.477Z,85888
2016-10-17T15:37:30.961Z,84416
2016-10-17T15:38:41.578Z,87040
2016-10-17T15:39:52.058Z,83264
2016-10-17T15:41:02.531Z,85344
2016-10-17T15:42:13.004Z,84832
2016-10-17T15:43:23.485Z,86688
2016-10-17T15:44:34.064Z,85248
2016-10-17T15:45:44.552Z,81856
2016-10-17T15:46:55.029Z,85088
2016-10-17T15:48:05.514Z,83008
2016-10-17T15:49:15.987Z,81792
2016-10-17T15:50:26.467Z,82368
2016-10-17T15:51:36.941Z,81056
2016-10-17T15:52:47.421Z,82816
2016-10-17T15:53:58.396Z,83680
2016-10-17T15:55:08.878Z,85344
2016-10-17T15:56:19.466Z,86848
2016-10-17T15:57:29.947Z,82368
2016-10-17T15:58:40.413Z,85504
2016-10-17T15:59:50.899Z,80672
2016-10-17T16:01:01.448Z,80512
2016-10-17T16:02:11.939Z,84864
2016-10-17T16:03:22.403Z,82336
2016-10-17T16:04:32.891Z,83168
2016-10-17T16:05:43.377Z,83840
2016-10-17T16:06:53.860Z,80256
2016-10-17T16:08:04.437Z,81728
2016-10-17T16:09:14.920Z,81184
2016-10-17T16:10:25.428Z,80992
2016-10-17T16:11:46.170Z,75808
2016-10-17T16:12:56.647Z,74560
2016-10-17T16:14:07.129Z,79328
2016-10-17T16:15:17.611Z,78976
2016-10-17T16:16:28.094Z,75968
2016-10-17T16:17:38.565Z,74144
2016-10-17T16:18:49.142Z,75744
2016-10-17T16:20:00.127Z,73152
2016-10-17T16:21:10.612Z,72000
2016-10-17T16:22:21.573Z,71808
2016-10-17T16:23:32.102Z,69472
2016-10-17T16:24:42.678Z,71264
2016-10-17T16:25:53.167Z,70176
2016-10-17T16:27:03.785Z,71712
2016-10-17T16:28:14.359Z,71136
2016-10-17T16:29:24.950Z,69920
2016-10-17T16:30:35.501Z,67840
2016-10-17T16:31:46.076Z,65440
2016-10-17T16:32:56.668Z,65024